Terminal Aerodrome Forecast
Issued by NWS

Home | Current Version | Previous Version | Text Only | Print | Product List | Glossary On
Versions: 1 2 3 4 5 6 7 8 9 10 11 12 13 14 15 16
000
FTUS42 KFFC 251100 AAA
TAFFTY
TAF AMD
KFTY 251137Z 2512/2612 33005KT P6SM SKC
     FM251500 33007KT P6SM SKC
     FM260200 31004KT P6SM FEW025
     FM260900 31003KT 4SM BR FEW025=

USA.gov is the U.S. government's official web portal to all federal, state and local government web resources and services.